createdAt,value
2018-12-05T05:20:29.787Z,89.08
2018-12-05T05:21:29.758Z,89.08
2018-12-05T05:22:29.748Z,89.04
2018-12-05T05:23:29.738Z,89.18
2018-12-05T05:24:29.744Z,89.04
2018-12-05T05:25:29.718Z,88.83
2018-12-05T05:26:29.705Z,88.66
2018-12-05T05:27:29.700Z,89.08
2018-12-05T05:28:29.698Z,89.35
2018-12-05T05:29:29.702Z,88.87
2018-12-05T05:30:29.663Z,89.35
2018-12-05T05:31:29.653Z,88.62
2018-12-05T05:32:29.652Z,89.18
2018-12-05T05:33:29.634Z,89.08
2018-12-05T05:34:29.644Z,88.62
2018-12-05T05:35:29.657Z,89.14
2018-12-05T05:36:29.608Z,89.04
2018-12-05T05:37:29.587Z,89.04
2018-12-05T05:38:29.588Z,88.73
2018-12-05T05:39:29.590Z,89.14
2018-12-05T05:41:24.506Z,88.62
2018-12-05T05:42:24.496Z,88.20
2018-12-05T05:43:24.481Z,88.20
2018-12-05T05:44:24.494Z,88.42
2018-12-05T05:45:24.464Z,88.52
2018-12-05T05:46:24.450Z,88.31
2018-12-05T05:47:24.439Z,88.52
2018-12-05T05:48:24.441Z,88.10
2018-12-05T05:49:24.449Z,88.42
2018-12-05T05:50:24.411Z,88.42
2018-12-05T05:51:24.405Z,88.31
2018-12-05T05:52:24.398Z,88.52
2018-12-05T05:53:24.378Z,88.62
2018-12-05T05:54:24.384Z,88.52
2018-12-05T05:55:24.355Z,88.52
2018-12-05T05:56:24.344Z,88.52
2018-12-05T05:57:24.345Z,88.79
2018-12-05T05:58:24.335Z,88.37
2018-12-05T05:59:24.333Z,88.42
2018-12-05T06:00:24.304Z,87.96
2018-12-05T06:01:24.288Z,87.96
2018-12-05T06:02:24.283Z,88.37
2018-12-05T06:03:24.278Z,88.37
2018-12-05T06:04:24.281Z,88.43
2018-12-05T06:05:24.248Z,87.54
2018-12-05T06:06:24.242Z,87.19
2018-12-05T06:07:24.227Z,87.29
2018-12-05T06:08:24.216Z,86.98
2018-12-05T06:09:24.223Z,86.98
2018-12-05T06:10:24.201Z,86.35
2018-12-05T06:11:24.185Z,86.98
2018-12-05T06:12:24.174Z,86.88
2018-12-05T06:13:24.165Z,87.19
2018-12-05T06:14:24.188Z,87.29
2018-12-05T06:15:24.139Z,87.25
2018-12-05T06:16:24.134Z,86.52
2018-12-05T06:17:24.118Z,86.52
2018-12-05T06:18:24.113Z,86.73
2018-12-05T06:19:24.120Z,85.69
2018-12-05T06:20:24.090Z,86.94
2018-12-05T06:21:24.092Z,86.32
2018-12-05T06:22:24.077Z,86.73
2018-12-05T06:23:24.054Z,86.63
2018-12-05T06:24:24.066Z,86.21
2018-12-05T06:25:24.037Z,85.90
2018-12-05T06:26:24.021Z,85.90
2018-12-05T06:27:24.012Z,85.69
2018-12-05T06:28:24.003Z,85.38
2018-12-05T06:29:24.025Z,85.24
2018-12-05T06:30:23.985Z,85.65
2018-12-05T06:31:23.968Z,85.75
2018-12-05T06:32:23.959Z,85.65
2018-12-05T06:33:23.946Z,85.34
2018-12-05T06:34:24.016Z,85.86
2018-12-05T06:35:23.927Z,84.92
2018-12-05T06:36:23.927Z,85.80
2018-12-05T06:37:23.903Z,85.90
2018-12-05T06:38:23.894Z,86.11
2018-12-05T06:39:23.884Z,86.73
2018-12-05T06:40:23.900Z,86.52
2018-12-05T06:41:23.870Z,86.80
2018-12-05T06:42:23.857Z,87.11
2018-12-05T06:43:23.848Z,86.27
2018-12-05T06:44:23.831Z,85.34
2018-12-05T06:45:23.838Z,85.65
2018-12-05T06:46:23.810Z,85.44
2018-12-05T06:47:23.814Z,86.07
2018-12-05T06:48:23.793Z,85.44
2018-12-05T06:49:23.778Z,85.59
2018-12-05T06:50:23.783Z,85.90
2018-12-05T06:51:23.765Z,86.59
2018-12-05T06:52:23.745Z,86.94
2018-12-05T06:53:23.738Z,86.83
2018-12-05T06:54:23.735Z,87.15
2018-12-05T06:55:23.732Z,87.25
2018-12-05T06:56:23.710Z,86.73
2018-12-05T06:57:23.711Z,86.59
2018-12-05T06:58:23.682Z,85.86
2018-12-05T06:59:23.670Z,85.96
2018-12-05T07:00:23.692Z,86.07
2018-12-05T07:01:23.648Z,85.80
2018-12-05T07:02:23.637Z,86.00
2018-12-05T07:03:23.626Z,86.42
2018-12-05T07:04:23.615Z,86.49
2018-12-05T07:05:23.639Z,86.49
2018-12-05T07:06:23.595Z,86.73
2018-12-05T07:07:23.586Z,86.73
2018-12-05T07:08:23.576Z,86.73
2018-12-05T07:09:23.562Z,86.73
2018-12-05T07:10:23.571Z,86.42
2018-12-05T07:11:23.544Z,86.52
2018-12-05T07:12:23.539Z,86.52
2018-12-05T07:13:23.536Z,86.59
2018-12-05T07:14:23.525Z,87.01
2018-12-05T07:15:23.529Z,86.59
2018-12-05T07:16:23.490Z,86.59
2018-12-05T07:17:23.495Z,86.38
2018-12-05T07:18:23.469Z,86.27
2018-12-05T07:19:23.489Z,86.38
2018-12-05T07:20:23.487Z,86.49
2018-12-05T07:21:23.433Z,86.49
2018-12-05T07:22:23.423Z,86.49
2018-12-05T07:23:23.444Z,86.49
2018-12-05T07:24:23.408Z,86.49
2018-12-05T07:25:23.413Z,86.38
2018-12-05T07:26:23.381Z,86.69
2018-12-05T07:27:23.372Z,86.52
2018-12-05T07:28:23.364Z,86.49
2018-12-05T07:29:23.356Z,86.49
2018-12-05T07:30:29.442Z,86.59
2018-12-05T07:31:24.342Z,87.01
2018-12-05T07:32:23.319Z,86.69
2018-12-05T07:33:23.307Z,86.59
2018-12-05T07:34:23.310Z,86.80
2018-12-05T07:35:23.317Z,86.27
2018-12-05T07:36:23.298Z,86.17
2018-12-05T07:37:23.263Z,86.38
2018-12-05T07:38:23.254Z,86.59
2018-12-05T07:39:23.245Z,86.65
2018-12-05T07:40:23.248Z,86.59
2018-12-05T07:41:23.224Z,85.51
2018-12-05T07:42:23.226Z,85.96
2018-12-05T07:43:23.223Z,85.61
2018-12-05T07:44:23.201Z,85.82
2018-12-05T07:45:23.205Z,86.13
2018-12-05T07:46:23.176Z,85.82
2018-12-05T07:47:23.168Z,85.30
2018-12-05T07:48:23.146Z,85.30
2018-12-05T07:49:23.142Z,85.61
2018-12-05T07:50:23.155Z,85.61
2018-12-05T07:51:23.114Z,85.61
2018-12-05T07:52:23.104Z,85.51
2018-12-05T07:53:23.100Z,85.30
2018-12-05T07:54:23.085Z,84.99
2018-12-05T07:55:23.088Z,85.61
2018-12-05T07:56:23.075Z,84.27
2018-12-05T07:57:23.049Z,84.68
2018-12-05T07:58:23.044Z,84.05
2018-12-05T07:59:23.035Z,84.01
2018-12-05T08:00:23.041Z,84.74
2018-12-05T08:01:23.022Z,84.99
2018-12-05T08:02:23.006Z,84.12
2018-12-05T08:03:22.988Z,84.53
2018-12-05T08:04:22.976Z,84.33
2018-12-05T08:05:22.996Z,84.53
2018-12-05T08:06:22.953Z,84.22
2018-12-05T08:07:22.944Z,83.60
2018-12-05T08:08:22.964Z,83.50
2018-12-05T08:09:22.927Z,84.19
2018-12-05T08:10:22.934Z,83.81
2018-12-05T08:11:22.902Z,83.60
2018-12-05T08:12:22.892Z,84.22
2018-12-05T08:13:22.880Z,83.91
2018-12-05T08:14:22.876Z,83.87
2018-12-05T08:15:22.879Z,83.46
2018-12-05T08:16:22.848Z,82.84
2018-12-05T08:17:22.851Z,82.63
2018-12-05T08:18:22.828Z,83.36
2018-12-05T08:19:22.834Z,82.84
2018-12-05T08:20:22.837Z,83.46
2018-12-05T08:21:22.796Z,83.15
2018-12-05T08:22:22.784Z,83.15
2018-12-05T08:23:22.773Z,83.25
2018-12-05T08:24:22.771Z,82.94
2018-12-05T08:25:22.830Z,83.15
2018-12-05T08:26:22.746Z,82.80
2018-12-05T08:27:22.732Z,82.80
2018-12-05T08:28:22.719Z,82.80
2018-12-05T08:29:22.708Z,82.90
2018-12-05T08:30:22.705Z,82.59
2018-12-05T08:31:22.741Z,83.36
2018-12-05T08:32:22.689Z,83.22
2018-12-05T08:33:22.664Z,82.84
2018-12-05T08:34:22.657Z,82.70
2018-12-05T08:35:22.647Z,82.70
2018-12-05T08:36:22.660Z,83.36
2018-12-05T08:37:22.633Z,83.11
2018-12-05T08:38:22.619Z,83.22
2018-12-05T08:39:22.600Z,82.80
2018-12-05T08:40:22.588Z,83.01
2018-12-05T08:41:22.595Z,83.01
2018-12-05T08:42:22.569Z,82.59
2018-12-05T08:43:22.598Z,83.42
2018-12-05T08:44:22.557Z,82.49
2018-12-05T08:45:22.547Z,82.90
2018-12-05T08:46:22.552Z,83.01
2018-12-05T08:47:22.519Z,82.49
2018-12-05T08:48:22.504Z,83.01
2018-12-05T08:49:22.494Z,83.11
2018-12-05T08:50:22.491Z,83.22
2018-12-05T08:51:22.505Z,82.39
2018-12-05T08:52:22.463Z,82.28
2018-12-05T08:53:22.464Z,82.28
2018-12-05T08:54:22.441Z,82.49
2018-12-05T08:55:22.437Z,83.11
2018-12-05T08:56:22.469Z,82.90
2018-12-05T08:57:22.408Z,83.22
2018-12-05T08:58:22.422Z,82.39
2018-12-05T08:59:22.393Z,83.01
2018-12-05T09:00:22.393Z,82.90
2018-12-05T09:01:22.381Z,82.55
2018-12-05T09:02:23.110Z,82.65
2018-12-05T09:03:22.350Z,82.03
2018-12-05T09:04:22.338Z,82.14
2018-12-05T09:05:22.323Z,81.93
2018-12-05T09:06:22.332Z,82.03
2018-12-05T09:07:22.311Z,82.03
2018-12-05T09:08:22.318Z,81.72
2018-12-05T09:09:22.283Z,81.93
2018-12-05T09:10:22.284Z,82.34
2018-12-05T09:11:22.279Z,82.49
2018-12-05T09:12:22.259Z,83.38
2018-12-05T09:13:22.250Z,83.07
2018-12-05T09:14:28.623Z,82.55
2018-12-05T09:15:23.223Z,82.55
2018-12-05T09:16:22.233Z,82.24
2018-12-05T09:17:22.205Z,81.99
2018-12-05T09:18:22.221Z,82.24
2018-12-05T09:19:22.179Z,82.03
2018-12-05T09:20:22.188Z,82.20
2018-12-05T09:21:22.179Z,82.31
2018-12-05T09:22:22.144Z,82.10
2018-12-05T09:23:22.132Z,82.20
2018-12-05T09:24:22.124Z,82.10
2018-12-05T09:25:22.123Z,82.10
2018-12-05T09:26:22.191Z,81.89
2018-12-05T09:27:22.090Z,81.58
2018-12-05T09:28:22.079Z,81.68
2018-12-05T09:29:22.069Z,82.31
2018-12-05T09:30:22.058Z,81.58
2018-12-05T09:31:22.065Z,82.10
2018-12-05T09:32:22.064Z,81.99
2018-12-05T09:33:22.028Z,81.96
2018-12-05T09:34:22.014Z,81.96
2018-12-05T09:35:22.002Z,81.96
2018-12-05T09:36:22.015Z,82.17
2018-12-05T09:37:21.986Z,82.20
2018-12-05T09:38:22.050Z,82.48
2018-12-05T09:39:21.964Z,82.06
2018-12-05T09:40:21.951Z,81.85
2018-12-05T09:41:21.972Z,81.54
2018-12-05T09:42:21.938Z,81.65
2018-12-05T09:43:21.926Z,81.96
2018-12-05T09:44:21.918Z,81.65
2018-12-05T09:45:21.903Z,81.34
2018-12-05T09:46:21.908Z,81.09
2018-12-05T09:47:21.881Z,81.92
2018-12-05T09:48:21.875Z,81.20
2018-12-05T09:49:21.861Z,81.30
2018-12-05T09:50:21.843Z,81.40
2018-12-05T09:51:21.859Z,81.51
2018-12-05T09:52:21.825Z,81.40
2018-12-05T09:53:21.813Z,81.71
2018-12-05T09:54:21.811Z,80.74
2018-12-05T09:55:21.806Z,81.26
2018-12-05T09:56:21.803Z,81.37
2018-12-05T09:57:21.769Z,80.54
2018-12-05T09:58:21.759Z,80.29
2018-12-05T09:59:21.766Z,79.91
2018-12-05T10:00:21.741Z,80.43
2018-12-05T10:01:21.752Z,80.64
2018-12-05T10:02:21.735Z,80.08
2018-12-05T10:03:21.706Z,80.08
2018-12-05T10:04:21.711Z,80.19
2018-12-05T10:05:21.698Z,79.98
2018-12-05T10:06:21.728Z,79.98
2018-12-05T10:07:21.664Z,79.88
2018-12-05T10:08:21.663Z,79.57
2018-12-05T10:09:21.645Z,80.29
2018-12-05T10:10:21.634Z,80.26
2018-12-05T10:11:21.661Z,79.33
2018-12-05T10:12:21.620Z,79.53
2018-12-05T10:13:21.617Z,78.70
2018-12-05T10:14:21.609Z,78.91
2018-12-05T10:15:21.582Z,78.70
2018-12-05T10:16:21.603Z,79.12
2018-12-05T10:17:21.562Z,78.98
2018-12-05T10:18:21.588Z,79.19
2018-12-05T10:19:21.562Z,78.77
2018-12-05T10:20:21.584Z,78.67
2018-12-05T10:21:21.532Z,78.77
2018-12-05T10:22:21.529Z,78.25
2018-12-05T10:23:21.503Z,78.67
2018-12-05T10:24:21.535Z,78.77
2018-12-05T10:25:21.478Z,78.67
2018-12-05T10:26:21.506Z,78.25
2018-12-05T10:27:21.493Z,78.88
2018-12-05T10:28:21.449Z,79.19
2018-12-05T10:29:21.438Z,78.88
2018-12-05T10:30:21.447Z,78.42
2018-12-05T10:31:21.421Z,77.29
2018-12-05T10:32:21.427Z,77.29
2018-12-05T10:33:21.399Z,77.12
2018-12-05T10:34:22.225Z,77.33
2018-12-05T10:35:21.378Z,77.94
2018-12-05T10:36:21.395Z,78.46
2018-12-05T10:37:21.398Z,78.67
2018-12-05T10:38:21.372Z,78.36
2018-12-05T10:39:21.363Z,78.50
2018-12-05T10:40:21.323Z,78.39
2018-12-05T10:41:21.329Z,78.81
2018-12-05T10:42:21.332Z,78.91
2018-12-05T10:43:21.309Z,78.67
2018-12-05T10:44:21.313Z,78.67
2018-12-05T10:45:21.275Z,79.08
2018-12-05T10:46:21.261Z,78.77
2018-12-05T10:47:21.269Z,78.36
2018-12-05T10:48:21.240Z,78.91
2018-12-05T10:49:21.232Z,78.88
2018-12-05T10:50:21.230Z,79.08
2018-12-05T10:51:21.377Z,78.77
2018-12-05T10:52:21.217Z,78.88
2018-12-05T10:53:21.188Z,79.29
2018-12-05T10:54:21.178Z,79.08
2018-12-05T10:55:21.189Z,78.88
2018-12-05T10:56:21.211Z,78.77
2018-12-05T10:57:21.197Z,78.56
2018-12-05T10:58:21.157Z,78.88
2018-12-05T10:59:21.724Z,78.67
2018-12-05T11:00:21.129Z,79.29
2018-12-05T11:01:21.143Z,78.81
2018-12-05T11:02:21.726Z,78.81
2018-12-05T11:03:21.084Z,78.91
2018-12-05T11:04:21.081Z,78.88
2018-12-05T11:05:21.067Z,79.22
2018-12-05T11:06:21.057Z,78.77
2018-12-05T11:07:21.059Z,78.77
2018-12-05T11:08:21.036Z,78.98
2018-12-05T11:09:21.020Z,78.88
2018-12-05T11:10:21.012Z,78.98
2018-12-05T11:11:21.022Z,78.98
2018-12-05T11:12:21.009Z,78.88
2018-12-05T11:13:20.987Z,78.67
2018-12-05T11:14:21.723Z,78.88
2018-12-05T11:15:20.996Z,79.29
2018-12-05T11:16:20.981Z,78.88
2018-12-05T11:17:21.003Z,78.98
2018-12-05T11:18:20.990Z,78.77
2018-12-05T11:19:20.918Z,78.56
2018-12-05T11:20:20.915Z,78.67
2018-12-05T11:21:20.915Z,78.67
2018-12-05T11:22:20.886Z,78.88
2018-12-05T11:23:20.892Z,78.63
2018-12-05T11:24:20.873Z,78.32
2018-12-05T11:25:20.917Z,78.42
2018-12-05T11:26:20.851Z,78.11
2018-12-05T11:27:20.962Z,78.63
2018-12-05T11:28:20.924Z,78.94
2018-12-05T11:29:20.818Z,77.70
2018-12-05T11:30:20.817Z,78.32
2018-12-05T11:31:20.792Z,78.42
2018-12-05T11:32:20.790Z,78.49
2018-12-05T11:33:20.811Z,78.70
2018-12-05T11:34:20.771Z,77.73
2018-12-05T11:35:20.751Z,77.36
2018-12-05T11:36:20.744Z,77.11
2018-12-05T11:37:20.739Z,76.84
2018-12-05T11:38:20.761Z,76.90
2018-12-05T11:39:20.722Z,77.36
2018-12-05T11:40:20.730Z,77.22
2018-12-05T11:41:21.222Z,77.42
2018-12-05T11:42:20.711Z,77.01
2018-12-05T11:43:20.717Z,76.70
2018-12-05T11:44:20.666Z,77.11
2018-12-05T11:45:20.657Z,76.84
2018-12-05T11:46:20.637Z,76.94
2018-12-05T11:47:20.651Z,77.32
2018-12-05T11:48:20.640Z,77.04
2018-12-05T11:49:20.608Z,77.77
2018-12-05T11:50:20.599Z,77.87
2018-12-05T11:51:20.591Z,78.08
2018-12-05T11:52:20.578Z,77.94
2018-12-05T11:53:20.603Z,78.66
2018-12-05T11:54:20.573Z,77.84
2018-12-05T11:55:20.547Z,77.63
2018-12-05T11:56:20.535Z,77.32
2018-12-05T11:57:20.530Z,76.70
2018-12-05T11:58:20.538Z,77.01
2018-12-05T11:59:20.534Z,76.98
2018-12-05T12:00:20.524Z,77.18
2018-12-05T12:01:20.483Z,77.08
2018-12-05T12:02:22.394Z,76.87
2018-12-05T12:03:20.760Z,76.87
2018-12-05T12:04:21.261Z,76.67
2018-12-05T12:05:20.494Z,77.08
2018-12-05T12:06:20.486Z,76.87
2018-12-05T12:07:20.522Z,76.98
2018-12-05T12:08:20.495Z,77.08
2018-12-05T12:09:20.459Z,77.39
2018-12-05T12:10:20.394Z,77.18
2018-12-05T12:11:20.381Z,76.56
2018-12-05T12:12:20.373Z,76.46
2018-12-05T12:13:20.364Z,76.35
2018-12-05T12:14:20.374Z,76.25
2018-12-05T12:15:20.346Z,76.46
2018-12-05T12:16:20.351Z,76.46
2018-12-05T12:17:20.323Z,76.67
2018-12-05T12:18:20.328Z,76.56
2018-12-05T12:19:20.300Z,76.46
2018-12-05T12:20:20.291Z,76.32
2018-12-05T12:21:20.281Z,76.21
2018-12-05T12:22:20.297Z,76.42
2018-12-05T12:23:20.296Z,75.81
2018-12-05T12:24:20.247Z,75.18
2018-12-05T12:25:20.238Z,75.91
2018-12-05T12:26:20.235Z,75.81
2018-12-05T12:27:20.224Z,75.36
2018-12-05T12:28:20.238Z,75.77
2018-12-05T12:29:20.198Z,75.67
2018-12-05T12:30:20.185Z,75.56
2018-12-05T12:31:20.178Z,75.26
2018-12-05T12:32:20.170Z,75.56
2018-12-05T12:33:20.178Z,75.46
2018-12-05T12:34:20.159Z,75.15
2018-12-05T12:35:20.142Z,75.36
2018-12-05T12:36:20.129Z,75.12
2018-12-05T12:37:20.129Z,74.40
2018-12-05T12:38:20.120Z,74.60
2018-12-05T12:39:20.089Z,74.91
2018-12-05T12:40:20.081Z,74.67
2018-12-05T12:41:20.071Z,74.16
2018-12-05T12:42:20.059Z,73.74
2018-12-05T12:43:20.112Z,73.47
2018-12-05T12:44:20.048Z,73.68
2018-12-05T12:45:20.233Z,73.57
2018-12-05T12:46:20.015Z,73.85
2018-12-05T12:47:20.003Z,73.64
2018-12-05T12:48:19.992Z,73.57
2018-12-05T12:49:20.017Z,74.91
2018-12-05T12:50:19.971Z,74.60
2018-12-05T12:51:19.961Z,74.40
2018-12-05T12:52:19.949Z,74.67
2018-12-05T12:53:19.938Z,73.95
2018-12-05T12:54:19.947Z,74.05
2018-12-05T12:55:19.934Z,73.98
2018-12-05T12:56:19.912Z,74.36
2018-12-05T12:57:19.896Z,73.85
2018-12-05T12:58:19.885Z,73.40
2018-12-05T12:59:19.890Z,73.47
2018-12-05T13:00:19.862Z,73.26
2018-12-05T13:01:19.856Z,72.85
2018-12-05T13:02:19.846Z,72.34
2018-12-05T13:03:19.842Z,72.20
2018-12-05T13:04:19.850Z,72.61
2018-12-05T13:05:19.821Z,72.51
2018-12-05T13:06:19.812Z,72.30
2018-12-05T13:07:19.818Z,72.72
2018-12-05T13:08:19.784Z,72.09
2018-12-05T13:09:19.791Z,72.44
2018-12-05T13:10:19.757Z,72.20
2018-12-05T13:11:19.745Z,72.51
2018-12-05T13:12:19.771Z,72.13
2018-12-05T13:13:19.730Z,72.41
2018-12-05T13:14:19.734Z,72.81
2018-12-05T13:15:19.725Z,72.81
2018-12-05T13:16:19.691Z,72.72
2018-12-05T13:17:19.682Z,72.72
2018-12-05T13:18:19.870Z,72.30
2018-12-05T13:19:19.682Z,72.75
2018-12-05T13:20:19.652Z,72.96
2018-12-05T13:21:19.650Z,73.16
2018-12-05T13:22:19.627Z,73.36
2018-12-05T13:23:19.617Z,73.16
2018-12-05T13:24:19.669Z,73.68
2018-12-05T13:25:19.599Z,73.16
2018-12-05T13:26:19.584Z,73.98
2018-12-05T13:27:19.575Z,73.36
2018-12-05T13:28:19.622Z,73.36
2018-12-05T13:29:19.570Z,73.16
2018-12-05T13:30:19.542Z,73.06
2018-12-05T13:31:19.540Z,73.26
2018-12-05T13:32:19.519Z,73.26
2018-12-05T13:33:19.517Z,73.61
2018-12-05T13:34:19.524Z,73.68
2018-12-05T13:35:19.487Z,73.78
2018-12-05T13:36:19.482Z,74.22
2018-12-05T13:37:19.472Z,73.57
2018-12-05T13:38:19.462Z,74.02
2018-12-05T13:39:19.481Z,73.57
2018-12-05T13:40:19.435Z,74.08
2018-12-05T13:41:19.424Z,74.08
2018-12-05T13:42:19.412Z,73.91
2018-12-05T13:43:19.402Z,74.12
2018-12-05T13:44:19.408Z,74.74
2018-12-05T13:45:19.398Z,74.84
2018-12-05T13:46:19.367Z,75.05
2018-12-05T13:47:19.373Z,74.74
2018-12-05T13:48:19.349Z,74.70
2018-12-05T13:49:19.351Z,73.78
2018-12-05T13:50:19.327Z,74.19
2018-12-05T13:51:19.325Z,73.78
2018-12-05T13:52:19.309Z,73.88
2018-12-05T13:53:19.293Z,73.88
2018-12-05T13:54:19.316Z,74.05
2018-12-05T13:55:19.270Z,74.19
2018-12-05T13:56:19.259Z,73.54
2018-12-05T13:57:19.258Z,73.78
2018-12-05T13:58:19.245Z,73.36
2018-12-05T13:59:19.248Z,73.88
2018-12-05T14:00:19.218Z,73.54
2018-12-05T14:01:19.204Z,73.95
2018-12-05T14:02:19.195Z,73.95
2018-12-05T14:03:19.194Z,74.40
2018-12-05T14:04:19.197Z,74.60
2018-12-05T14:05:19.162Z,74.91
2018-12-05T14:06:19.168Z,75.12
2018-12-05T14:07:19.176Z,75.01
2018-12-05T14:08:19.128Z,75.01
2018-12-05T14:09:19.138Z,73.88
2018-12-05T14:10:19.121Z,75.01
2018-12-05T14:11:19.101Z,74.91
2018-12-05T14:12:19.085Z,74.43
2018-12-05T14:13:19.095Z,75.15
2018-12-05T14:14:19.088Z,75.05
2018-12-05T14:15:19.067Z,75.05
2018-12-05T14:16:19.046Z,75.15
2018-12-05T14:17:19.033Z,75.25
2018-12-05T14:18:19.023Z,75.46
2018-12-05T14:19:19.031Z,75.35
2018-12-05T14:20:19.002Z,75.56
2018-12-05T14:21:19.004Z,75.67
2018-12-05T14:22:18.984Z,75.67
2018-12-05T14:23:18.969Z,76.59
2018-12-05T14:24:18.987Z,76.28
2018-12-05T14:25:18.953Z,76.18
2018-12-05T14:26:18.940Z,76.18
2018-12-05T14:27:18.946Z,76.18
2018-12-05T14:28:18.922Z,76.28
2018-12-05T14:29:18.922Z,76.18
2018-12-05T14:30:18.897Z,76.21
2018-12-05T14:31:18.888Z,76.28
2018-12-05T14:32:18.876Z,75.97
2018-12-05T14:33:18.890Z,75.97
2018-12-05T14:34:18.877Z,76.70
2018-12-05T14:35:18.843Z,76.28
2018-12-05T14:36:18.833Z,76.28
2018-12-05T14:37:18.822Z,76.18
2018-12-05T14:38:18.816Z,76.07
2018-12-05T14:39:18.823Z,76.07
2018-12-05T14:40:18.807Z,76.70
2018-12-05T14:41:18.779Z,76.59
2018-12-05T14:42:18.770Z,76.70
2018-12-05T14:43:18.758Z,76.63
2018-12-05T14:44:18.753Z,76.53
2018-12-05T14:45:18.777Z,76.63
2018-12-05T14:46:18.731Z,76.63
2018-12-05T14:47:18.724Z,76.73
2018-12-05T14:48:18.708Z,76.83
2018-12-05T14:49:18.699Z,77.14
2018-12-05T14:50:18.704Z,77.35
2018-12-05T14:51:18.686Z,77.14
2018-12-05T14:52:18.666Z,77.14
2018-12-05T14:53:18.665Z,77.18
2018-12-05T14:54:18.646Z,77.80
2018-12-05T14:55:18.653Z,77.55
2018-12-05T14:56:18.636Z,77.80
2018-12-05T14:57:18.619Z,77.97
2018-12-05T14:58:18.603Z,77.66
2018-12-05T14:59:18.597Z,77.86
2018-12-05T15:00:18.604Z,77.66
2018-12-05T15:01:18.571Z,77.55
2018-12-05T15:02:18.560Z,78.21
2018-12-05T15:03:18.567Z,78.48
2018-12-05T15:04:18.545Z,78.58
2018-12-05T15:05:18.548Z,78.07
2018-12-05T15:06:18.542Z,79.00
2018-12-05T15:07:18.508Z,78.89
2018-12-05T15:08:18.500Z,78.69
2018-12-05T15:09:18.488Z,78.69
2018-12-05T15:10:18.504Z,78.69
2018-12-05T15:11:18.469Z,78.38
2018-12-05T15:12:18.483Z,78.58
2018-12-05T15:13:18.452Z,78.58
2018-12-05T15:14:18.451Z,78.48
2018-12-05T15:15:18.448Z,78.38
2018-12-05T15:16:18.414Z,78.38
2018-12-05T15:17:18.408Z,78.52
2018-12-05T15:18:18.392Z,78.69
2018-12-05T15:19:18.383Z,78.07
2018-12-05T15:20:18.401Z,78.38
2018-12-05T15:21:18.375Z,78.41
2018-12-05T15:22:18.356Z,78.58
2018-12-05T15:23:18.346Z,78.41
2018-12-05T15:24:18.350Z,79.03
2018-12-05T15:25:18.351Z,78.93
2018-12-05T15:26:18.313Z,78.83
2018-12-05T15:27:18.310Z,79.24
2018-12-05T15:28:18.290Z,79.03
2018-12-05T15:29:18.280Z,78.72
2018-12-05T15:30:18.299Z,79.03
2018-12-05T15:31:18.263Z,79.14
2018-12-05T15:32:18.252Z,78.93
2018-12-05T15:33:18.241Z,79.55
2018-12-05T15:34:18.261Z,79.24
2018-12-05T15:35:18.237Z,78.52
2018-12-05T15:36:18.211Z,79.14
2018-12-05T15:37:18.199Z,79.55
2018-12-05T15:38:18.230Z,79.27
2018-12-05T15:39:18.170Z,79.69
2018-12-05T15:40:18.176Z,79.58
2018-12-05T15:41:18.164Z,80.00
2018-12-05T15:42:18.144Z,80.20
2018-12-05T15:43:18.128Z,80.20
2018-12-05T15:44:18.121Z,80.10
2018-12-05T15:45:21.562Z,80.30
2018-12-05T15:46:18.097Z,80.10
2018-12-05T15:47:18.106Z,80.00
2018-12-05T15:48:18.082Z,80.41
2018-12-05T15:49:18.065Z,80.51
2018-12-05T15:50:18.190Z,80.00
2018-12-05T15:51:18.044Z,80.51
2018-12-05T15:52:18.108Z,80.51
2018-12-05T15:53:18.030Z,80.65
2018-12-05T15:54:18.039Z,80.65
2018-12-05T15:55:18.020Z,80.44
2018-12-05T15:56:17.995Z,80.55
2018-12-05T15:57:17.984Z,80.41
2018-12-05T15:58:17.970Z,80.82
2018-12-05T15:59:17.963Z,81.17
2018-12-05T16:00:17.975Z,80.86
2018-12-05T16:01:17.966Z,81.07
2018-12-05T16:02:17.932Z,81.17
2018-12-05T16:03:17.921Z,81.07
2018-12-05T16:04:17.912Z,80.86
2018-12-05T16:05:17.911Z,81.07
2018-12-05T16:06:17.887Z,80.65
2018-12-05T16:07:17.876Z,80.65
2018-12-05T16:08:17.884Z,80.96
2018-12-05T16:09:17.853Z,81.37
2018-12-05T16:10:17.865Z,81.17
2018-12-05T16:11:17.839Z,81.00
2018-12-05T16:12:17.822Z,80.86
2018-12-05T16:13:17.813Z,81.37
2018-12-05T16:14:17.859Z,81.37
2018-12-05T16:15:17.810Z,80.65
2018-12-05T16:16:17.780Z,81.00
2018-12-05T16:17:17.770Z,81.07
2018-12-05T16:18:17.766Z,81.07
2018-12-05T16:19:17.749Z,80.76
2018-12-05T16:20:17.804Z,81.37
2018-12-05T16:21:17.744Z,80.76
2018-12-05T16:22:17.717Z,81.17
2018-12-05T16:23:17.708Z,80.96
2018-12-05T16:24:17.702Z,81.41
2018-12-05T16:25:17.714Z,80.48
2018-12-05T16:26:17.689Z,80.07
2018-12-05T16:27:17.677Z,80.79
2018-12-05T16:28:17.657Z,80.48
2018-12-05T16:29:17.646Z,80.58
2018-12-05T16:30:17.636Z,79.93
2018-12-05T16:31:17.648Z,80.07
2018-12-05T16:32:17.630Z,80.58
2018-12-05T16:33:17.616Z,80.07
2018-12-05T16:34:17.594Z,80.58
2018-12-05T16:35:17.586Z,80.48
2018-12-05T16:36:17.594Z,80.18
2018-12-05T16:37:17.565Z,79.72
2018-12-05T16:38:17.553Z,80.04
2018-12-05T16:39:17.557Z,80.24
2018-12-05T16:40:17.538Z,80.04
2018-12-05T16:41:17.541Z,80.24
2018-12-05T16:42:17.512Z,79.93
2018-12-05T16:43:17.500Z,79.62
2018-12-05T16:44:17.490Z,79.86
2018-12-05T16:45:17.487Z,80.28
2018-12-05T16:46:17.502Z,80.28
2018-12-05T16:47:17.464Z,80.24
2018-12-05T16:48:17.449Z,80.24
2018-12-05T16:49:17.442Z,79.93
2018-12-05T16:50:17.434Z,80.28
2018-12-05T16:51:17.443Z,80.18
2018-12-05T16:52:17.410Z,79.86
2018-12-05T16:53:17.415Z,79.66
2018-12-05T16:54:17.390Z,80.04
2018-12-05T16:55:17.384Z,79.93
2018-12-05T16:56:17.392Z,80.04
2018-12-05T16:57:17.357Z,79.35
2018-12-05T16:58:17.349Z,79.76
2018-12-05T16:59:17.354Z,79.62
2018-12-05T17:00:17.326Z,79.52
2018-12-05T17:01:17.336Z,79.41
2018-12-05T17:02:17.306Z,79.35
2018-12-05T17:03:17.297Z,79.52
2018-12-05T17:04:17.288Z,80.14
2018-12-05T17:05:17.281Z,79.41
2018-12-05T17:06:17.294Z,79.52
2018-12-05T17:07:17.254Z,79.21
2018-12-05T17:08:17.247Z,79.76
2018-12-05T17:09:17.238Z,79.86
2018-12-05T17:10:17.231Z,79.86
2018-12-05T17:11:17.232Z,79.76
2018-12-05T17:12:17.204Z,79.76
2018-12-05T17:13:17.196Z,79.86
2018-12-05T17:14:17.202Z,79.72
2018-12-05T17:15:17.193Z,79.83
2018-12-05T17:16:18.164Z,79.52
2018-12-05T17:17:17.157Z,79.31
2018-12-05T17:18:17.155Z,79.66
2018-12-05T17:19:17.130Z,79.62
2018-12-05T17:20:17.120Z,79.35
2018-12-05T17:21:17.140Z,80.04
2018-12-05T17:22:17.114Z,80.04
2018-12-05T17:23:17.091Z,79.52
2018-12-05T17:24:17.080Z,79.62
2018-12-05T17:25:17.068Z,80.04
2018-12-05T17:26:17.083Z,79.72
2018-12-05T17:27:17.864Z,79.83
2018-12-05T17:28:17.038Z,79.76
2018-12-05T17:29:17.026Z,80.34
2018-12-05T17:30:17.023Z,80.24
2018-12-05T17:31:18.458Z,79.86
2018-12-05T17:32:16.995Z,79.72
2018-12-05T17:33:16.992Z,79.62
2018-12-05T17:34:17.047Z,79.83
2018-12-05T17:35:16.966Z,79.76
2018-12-05T17:36:16.976Z,80.28
2018-12-05T17:37:16.948Z,80.14
2018-12-05T17:38:16.940Z,79.83
2018-12-05T17:39:16.926Z,79.72
2018-12-05T17:40:16.921Z,79.97
2018-12-05T17:41:16.940Z,80.18
2018-12-05T17:42:16.899Z,80.18
2018-12-05T17:43:16.885Z,80.24
2018-12-05T17:44:16.879Z,80.38
2018-12-05T17:45:16.866Z,79.83
2018-12-05T17:46:16.876Z,79.62
2018-12-05T17:47:16.841Z,79.72
2018-12-05T17:48:16.836Z,80.24
2018-12-05T17:49:16.824Z,80.34
2018-12-05T17:50:16.840Z,80.48
2018-12-05T17:51:16.820Z,80.28
2018-12-05T17:52:16.792Z,80.90
2018-12-05T17:53:16.862Z,80.69
2018-12-05T17:54:16.787Z,80.86
2018-12-05T17:55:16.767Z,80.44
2018-12-05T17:56:16.770Z,81.27
2018-12-05T17:57:16.742Z,81.17
2018-12-05T17:58:16.733Z,80.48
2018-12-05T17:59:16.721Z,80.55
2018-12-05T18:00:16.708Z,80.79
2018-12-05T18:01:16.718Z,80.96
2018-12-05T18:02:16.690Z,81.07
2018-12-05T18:03:16.702Z,81.58
2018-12-05T18:04:16.667Z,81.07
2018-12-05T18:05:16.657Z,81.27
2018-12-05T18:06:16.666Z,80.44
2018-12-05T18:07:16.635Z,80.55
2018-12-05T18:08:16.632Z,80.55
2018-12-05T18:09:16.637Z,80.44
2018-12-05T18:10:16.605Z,80.55
2018-12-05T18:11:16.616Z,80.28
2018-12-05T18:12:16.585Z,80.55
2018-12-05T18:13:16.579Z,80.44